Time;durP1;ratioP1;P1;durP2;ratioP2;P2;SDS_P1;SDS_P2;PMS_P1;PMS_P2;Temp;Humidity;BMP_temperature;BMP_pressure;BME280_temperature;BME280_humidity;BME280_pressure;Samples;Min_cycle;Max_cycle;Signal;HPM_P1;HPM_P2
2022/12/24 00:00:34;;;;;;;;;;;29.30;83.30;;;;;;5035799;28;19912;-72
2022/12/24 00:03:01;;;;;;;;;;;29.50;83.60;;;;;;5032683;28;19983;-70
2022/12/24 00:05:28;;;;;;;;;;;29.70;82.90;;;;;;5033151;28;20617;-70
2022/12/24 00:07:54;;;;;;;;;;;29.80;82.50;;;;;;5031171;28;20555;-70
2022/12/24 00:10:21;;;;;;;;;;;29.80;81.90;;;;;;5033440;28;19924;-68
2022/12/24 00:12:47;;;;;;;;;;;29.90;81.20;;;;;;5051231;28;20280;-73
2022/12/24 00:15:14;;;;;;;;;;;29.90;82.10;;;;;;5053012;28;20292;-72
2022/12/24 00:17:41;;;;;;;;;;;29.90;81.40;;;;;;5046593;28;19974;-71
2022/12/24 00:20:08;;;;;;;;;;;30.00;81.20;;;;;;5042453;28;19923;-72
2022/12/24 00:22:34;;;;;;;;;;;30.10;80.00;;;;;;5023409;28;20313;-70
2022/12/24 00:25:01;;;;;;;;;;;30.30;79.50;;;;;;5040132;28;19974;-71
2022/12/24 00:27:28;;;;;;;;;;;30.30;78.10;;;;;;5040888;28;19940;-71
2022/12/24 00:29:54;;;;;;;;;;;30.40;78.60;;;;;;5041371;28;19909;-70
2022/12/24 00:32:21;;;;;;;;;;;30.30;78.00;;;;;;5042014;28;20011;-71
2022/12/24 00:34:48;;;;;;;;;;;30.30;78.30;;;;;;5040380;28;19924;-70
2022/12/24 00:37:14;;;;;;;;;;;30.50;78.80;;;;;;5039931;28;19917;-69
2022/12/24 00:39:41;;;;;;;;;;;30.60;78.10;;;;;;5041675;28;19917;-71
2022/12/24 00:42:07;;;;;;;;;;;30.90;77.80;;;;;;5042574;28;19917;-72
2022/12/24 00:44:34;;;;;;;;;;;31.00;74.80;;;;;;5053902;28;19908;-70
2022/12/24 00:47:01;;;;;;;;;;;31.10;74.30;;;;;;5046271;28;19913;-71
2022/12/24 00:49:27;;;;;;;;;;;31.20;74.40;;;;;;5032232;28;19962;-69
2022/12/24 00:51:54;;;;;;;;;;;31.40;74.50;;;;;;5031287;28;20540;-69
2022/12/24 00:54:20;;;;;;;;;;;31.40;74.70;;;;;;5032519;28;20264;-72
2022/12/24 00:56:47;;;;;;;;;;;31.60;74.80;;;;;;5033680;28;20000;-71
2022/12/24 00:59:14;;;;;;;;;;;31.80;78.50;;;;;;5033213;28;19978;-72
2022/12/24 01:01:40;;;;;;;;;;;31.80;83.00;;;;;;5032502;28;19909;-70
2022/12/24 01:06:51;;;;;;;;;;;31.80;83.20;;;;;;5042224;28;19938;-72
2022/12/24 01:09:18;;;;;;;;;;;31.80;84.40;;;;;;5033127;28;19908;-69
2022/12/24 01:11:45;;;;;;;;;;;31.70;85.10;;;;;;5032606;28;20077;-70
2022/12/24 01:14:11;;;;;;;;;;;31.60;85.00;;;;;;5030876;28;19943;-68
2022/12/24 01:16:38;;;;;;;;;;;31.40;84.80;;;;;;5031158;28;20305;-69
2022/12/24 01:19:05;;;;;;;;;;;31.30;85.60;;;;;;5032383;28;20371;-70
2022/12/24 01:21:31;;;;;;;;;;;31.20;85.40;;;;;;5031878;28;19912;-70
2022/12/24 01:23:58;;;;;;;;;;;31.10;85.30;;;;;;5031099;28;19928;-68
2022/12/24 01:26:24;;;;;;;;;;;31.40;85.10;;;;;;5031774;28;19908;-69
2022/12/24 01:28:51;;;;;;;;;;;31.40;85.40;;;;;;5039477;28;19917;-70
2022/12/24 01:31:19;;;;;;;;;;;31.40;84.90;;;;;;5035951;28;20291;-69
2022/12/24 01:33:46;;;;;;;;;;;31.50;85.90;;;;;;5048704;28;19927;-70
2022/12/24 01:36:13;;;;;;;;;;;31.80;84.50;;;;;;5050887;28;20036;-71
2022/12/24 01:38:40;;;;;;;;;;;31.90;84.20;;;;;;5051315;28;19950;-69
2022/12/24 01:43:51;;;;;;;;;;;32.20;83.10;;;;;;5038021;28;19948;-69
2022/12/24 01:46:29;;;;;;;;;;;32.40;83.50;;;;;;5037093;28;19955;-68
2022/12/24 01:48:57;;;;;;;;;;;32.30;84.40;;;;;;5036593;28;19931;-70
2022/12/24 01:51:34;;;;;;;;;;;32.30;84.20;;;;;;5038956;28;20362;-71
2022/12/24 01:54:04;;;;;;;;;;;32.30;83.40;;;;;;5045306;28;19915;-72
2022/12/24 01:56:32;;;;;;;;;;;32.10;83.50;;;;;;5045951;28;19919;-72
2022/12/24 01:59:02;;;;;;;;;;;32.20;84.10;;;;;;5055630;28;19916;-71
2022/12/24 02:01:29;;;;;;;;;;;32.20;83.40;;;;;;5050304;28;19991;-69
2022/12/24 02:03:56;;;;;;;;;;;32.50;83.40;;;;;;5041563;28;19965;-71
2022/12/24 02:06:23;;;;;;;;;;;32.70;83.80;;;;;;5039815;28;20576;-68
2022/12/24 02:08:50;;;;;;;;;;;32.80;81.90;;;;;;5036259;28;20272;-70
2022/12/24 02:11:21;;;;;;;;;;;32.60;82.90;;;;;;5052648;28;19912;-71
2022/12/24 02:13:50;;;;;;;;;;;32.50;83.30;;;;;;5060045;28;19912;-70
2022/12/24 02:16:35;;;;;;;;;;;32.40;83.20;;;;;;5061794;28;19916;-70
2022/12/24 02:19:02;;;;;;;;;;;32.40;82.10;;;;;;5075850;28;19927;-70
2022/12/24 02:21:31;;;;;;;;;;;32.50;82.60;;;;;;5051925;28;19928;-70
2022/12/24 02:24:09;;;;;;;;;;;32.70;82.50;;;;;;5056297;28;19919;-70
2022/12/24 02:26:38;;;;;;;;;;;32.60;81.90;;;;;;5051911;28;20475;-70
2022/12/24 02:29:23;;;;;;;;;;;32.50;81.00;;;;;;5048423;28;19912;-73
2022/12/24 02:31:51;;;;;;;;;;;32.50;81.80;;;;;;5049585;28;19913;-70
2022/12/24 02:34:27;;;;;;;;;;;32.40;83.10;;;;;;5044929;28;19927;-71
2022/12/24 02:36:53;;;;;;;;;;;32.30;82.30;;;;;;5049998;28;20209;-69
2022/12/24 02:39:38;;;;;;;;;;;32.30;82.20;;;;;;5047349;28;19991;-70
2022/12/24 02:42:05;;;;;;;;;;;32.50;79.60;;;;;;5044158;28;19913;-71
2022/12/24 02:44:38;;;;;;;;;;;32.60;79.30;;;;;;5042585;28;20017;-72
2022/12/24 02:47:06;;;;;;;;;;;32.40;81.10;;;;;;5046085;28;20019;-71
2022/12/24 02:49:34;;;;;;;;;;;32.70;79.10;;;;;;5043536;28;20089;-72
2022/12/24 02:52:01;;;;;;;;;;;32.90;79.00;;;;;;5040356;28;19923;-68
2022/12/24 02:54:28;;;;;;;;;;;33.10;78.80;;;;;;5042807;28;20238;-68
2022/12/24 02:56:57;;;;;;;;;;;33.60;77.90;;;;;;5044777;28;19917;-70
2022/12/24 02:59:30;;;;;;;;;;;33.60;77.40;;;;;;5040666;28;19999;-69
2022/12/24 03:02:05;;;;;;;;;;;34.00;76.50;;;;;;5049544;28;19935;-69
2022/12/24 03:04:45;;;;;;;;;;;34.10;76.10;;;;;;5048648;28;21485;-69
2022/12/24 03:07:16;;;;;;;;;;;34.20;75.40;;;;;;5040339;28;19987;-70
2022/12/24 03:09:50;;;;;;;;;;;34.30;75.90;;;;;;5041201;28;20029;-68
2022/12/24 03:12:19;;;;;;;;;;;35.00;73.70;;;;;;5046052;28;19909;-70
2022/12/24 03:14:47;;;;;;;;;;;35.40;73.60;;;;;;5039085;28;19912;-69
2022/12/24 03:17:14;;;;;;;;;;;35.90;71.80;;;;;;5045817;28;20296;-70
2022/12/24 03:19:41;;;;;;;;;;;36.00;71.50;;;;;;5041703;28;20408;-70
2022/12/24 03:22:10;;;;;;;;;;;36.80;70.00;;;;;;5037047;28;19931;-70
2022/12/24 03:24:37;;;;;;;;;;;37.70;68.00;;;;;;5041379;28;19935;-69
2022/12/24 03:27:05;;;;;;;;;;;38.00;69.30;;;;;;5042142;28;19919;-70
2022/12/24 03:29:32;;;;;;;;;;;38.70;66.10;;;;;;5051097;28;19970;-70
2022/12/24 03:32:01;;;;;;;;;;;37.90;66.40;;;;;;5043511;28;19916;-71
2022/12/24 03:34:27;;;;;;;;;;;38.10;66.60;;;;;;5032007;28;20321;-71
2022/12/24 03:36:54;;;;;;;;;;;37.90;65.00;;;;;;5034014;28;20353;-69
2022/12/24 03:39:21;;;;;;;;;;;38.20;64.20;;;;;;5043970;28;19912;-70
2022/12/24 03:41:48;;;;;;;;;;;38.80;64.00;;;;;;5036590;28;19916;-70
2022/12/24 03:44:14;;;;;;;;;;;39.10;64.30;;;;;;5037103;28;20016;-71
2022/12/24 03:46:41;;;;;;;;;;;39.70;62.20;;;;;;5034030;28;19936;-68
2022/12/24 03:49:08;;;;;;;;;;;40.20;61.70;;;;;;5037734;28;19912;-67
2022/12/24 03:51:34;;;;;;;;;;;39.70;61.20;;;;;;5048380;28;19916;-67
2022/12/24 03:54:01;;;;;;;;;;;39.10;61.70;;;;;;5033883;28;19948;-67
2022/12/24 03:56:28;;;;;;;;;;;38.50;63.10;;;;;;5041898;28;20292;-66
2022/12/24 03:58:54;;;;;;;;;;;38.30;61.30;;;;;;5042942;28;19942;-68
2022/12/24 04:01:21;;;;;;;;;;;37.40;63.10;;;;;;5043480;28;19985;-68
2022/12/24 04:03:48;;;;;;;;;;;36.60;64.80;;;;;;5042658;28;19913;-67
2022/12/24 04:06:16;;;;;;;;;;;36.80;63.00;;;;;;5040357;28;19921;-68
2022/12/24 04:08:43;;;;;;;;;;;36.70;63.60;;;;;;5040419;28;20268;-67
2022/12/24 04:11:11;;;;;;;;;;;36.80;62.80;;;;;;5037429;28;19963;-68
2022/12/24 04:13:37;;;;;;;;;;;37.00;63.60;;;;;;5031203;28;19973;-69
2022/12/24 04:16:08;;;;;;;;;;;37.20;62.80;;;;;;5036959;28;19947;-68
2022/12/24 04:18:35;;;;;;;;;;;37.10;63.20;;;;;;5033831;28;20008;-67
2022/12/24 04:21:02;;;;;;;;;;;37.60;62.00;;;;;;5032153;28;19979;-68
2022/12/24 04:23:32;;;;;;;;;;;38.40;60.70;;;;;;5036378;28;20007;-68
2022/12/24 04:25:59;;;;;;;;;;;38.40;60.10;;;;;;5042636;28;19995;-67
2022/12/24 04:28:27;;;;;;;;;;;38.30;60.30;;;;;;5039613;28;19920;-68
2022/12/24 04:30:58;;;;;;;;;;;38.20;61.20;;;;;;5039943;28;19912;-69
2022/12/24 04:33:25;;;;;;;;;;;38.50;59.70;;;;;;5035317;28;20541;-70
2022/12/24 04:35:51;;;;;;;;;;;38.30;60.70;;;;;;5042740;28;20027;-69
2022/12/24 04:38:18;;;;;;;;;;;38.60;59.90;;;;;;5038542;28;19923;-67
2022/12/24 04:40:45;;;;;;;;;;;38.30;59.80;;;;;;5034242;28;20732;-66
2022/12/24 04:43:11;;;;;;;;;;;38.10;60.40;;;;;;5040451;28;20587;-67
2022/12/24 04:45:38;;;;;;;;;;;37.60;60.20;;;;;;5035939;28;19936;-66
2022/12/24 04:48:05;;;;;;;;;;;37.50;60.90;;;;;;5035725;28;19909;-66
2022/12/24 04:50:31;;;;;;;;;;;37.90;59.80;;;;;;5044330;28;19917;-67
2022/12/24 04:52:58;;;;;;;;;;;37.50;60.20;;;;;;5037673;28;19916;-66
2022/12/24 04:55:25;;;;;;;;;;;37.90;60.10;;;;;;5034934;28;19977;-68
2022/12/24 04:57:51;;;;;;;;;;;38.40;58.80;;;;;;5049825;28;19969;-66
2022/12/24 05:00:18;;;;;;;;;;;38.30;59.40;;;;;;5049849;28;19962;-66
2022/12/24 05:02:44;;;;;;;;;;;38.60;58.30;;;;;;5048768;28;20470;-69
2022/12/24 05:05:11;;;;;;;;;;;38.00;59.60;;;;;;5038669;28;20086;-69
2022/12/24 05:07:38;;;;;;;;;;;37.50;60.50;;;;;;5038638;28;19963;-68
2022/12/24 05:10:05;;;;;;;;;;;37.90;60.30;;;;;;5037133;28;20632;-70
2022/12/24 05:12:31;;;;;;;;;;;38.20;58.90;;;;;;5037743;28;20081;-68
2022/12/24 05:14:58;;;;;;;;;;;38.50;59.50;;;;;;5042247;28;20284;-69
2022/12/24 05:17:24;;;;;;;;;;;38.40;59.00;;;;;;5037501;28;19979;-67
2022/12/24 05:19:51;;;;;;;;;;;37.80;59.60;;;;;;5042079;28;19924;-68
2022/12/24 05:27:47;;;;;;;;;;;36.30;61.70;;;;;;5036581;28;20155;-69
2022/12/24 05:30:14;;;;;;;;;;;35.40;63.10;;;;;;5036080;28;19952;-68
2022/12/24 05:32:40;;;;;;;;;;;35.10;64.00;;;;;;5044347;28;19935;-68
2022/12/24 05:35:07;;;;;;;;;;;35.20;62.60;;;;;;5045136;28;20015;-68
2022/12/24 05:37:34;;;;;;;;;;;35.50;62.30;;;;;;5040465;28;20599;-67
2022/12/24 05:40:00;;;;;;;;;;;35.70;61.40;;;;;;5038132;28;19947;-68
2022/12/24 05:42:27;;;;;;;;;;;35.60;62.30;;;;;;5045888;28;20042;-70
2022/12/24 05:44:54;;;;;;;;;;;35.70;61.00;;;;;;5040956;28;19921;-68
2022/12/24 05:47:20;;;;;;;;;;;35.70;61.50;;;;;;5039243;28;20003;-67
2022/12/24 05:49:47;;;;;;;;;;;35.60;61.50;;;;;;5039643;28;19912;-70
2022/12/24 05:52:14;;;;;;;;;;;35.40;62.10;;;;;;5040093;28;20052;-68
2022/12/24 05:54:40;;;;;;;;;;;35.10;62.20;;;;;;5039980;28;19920;-66
2022/12/24 05:57:07;;;;;;;;;;;34.40;63.00;;;;;;5038221;28;20688;-67
2022/12/24 05:59:33;;;;;;;;;;;34.20;64.10;;;;;;5038620;28;19913;-67
2022/12/24 06:02:00;;;;;;;;;;;33.60;64.10;;;;;;5037528;28;19920;-68
2022/12/24 06:04:27;;;;;;;;;;;33.10;65.00;;;;;;5038381;28;19917;-68
2022/12/24 06:06:53;;;;;;;;;;;32.90;65.20;;;;;;5036244;28;20317;-68
2022/12/24 06:09:20;;;;;;;;;;;32.90;65.10;;;;;;5041302;28;19920;-67
2022/12/24 06:11:47;;;;;;;;;;;33.10;65.50;;;;;;5038240;28;19913;-67
2022/12/24 06:14:13;;;;;;;;;;;33.00;64.80;;;;;;5036562;28;19921;-69
2022/12/24 06:16:40;;;;;;;;;;;32.50;64.10;;;;;;5037827;28;20513;-69
2022/12/24 06:19:07;;;;;;;;;;;32.30;64.90;;;;;;5037899;28;19924;-68
2022/12/24 06:21:33;;;;;;;;;;;32.20;66.00;;;;;;5041067;28;19917;-68
2022/12/24 06:24:00;;;;;;;;;;;32.20;64.00;;;;;;5034303;28;19916;-69
2022/12/24 06:26:27;;;;;;;;;;;31.90;64.80;;;;;;5039749;28;19924;-67
2022/12/24 06:28:54;;;;;;;;;;;32.00;65.00;;;;;;5035857;28;19938;-69
2022/12/24 06:31:21;;;;;;;;;;;31.80;64.60;;;;;;5041808;28;19920;-71
2022/12/24 06:33:48;;;;;;;;;;;31.80;65.10;;;;;;5040898;28;20249;-69
2022/12/24 06:36:16;;;;;;;;;;;31.80;65.20;;;;;;5041293;28;20060;-69
2022/12/24 06:38:43;;;;;;;;;;;31.80;65.30;;;;;;5042444;28;19925;-68
2022/12/24 06:41:10;;;;;;;;;;;32.00;65.10;;;;;;5042647;28;20471;-70
2022/12/24 06:43:37;;;;;;;;;;;31.70;63.90;;;;;;5045297;28;19938;-67
2022/12/24 06:46:03;;;;;;;;;;;31.50;64.60;;;;;;5035926;28;19913;-68
2022/12/24 06:48:30;;;;;;;;;;;31.50;64.30;;;;;;5041741;28;19983;-68
2022/12/24 06:50:57;;;;;;;;;;;31.60;64.00;;;;;;5042874;28;19908;-67
2022/12/24 06:53:24;;;;;;;;;;;31.70;63.70;;;;;;5043729;28;19975;-67
2022/12/24 06:55:50;;;;;;;;;;;31.80;64.10;;;;;;5042268;28;19989;-69
2022/12/24 06:58:17;;;;;;;;;;;31.70;64.90;;;;;;5044259;28;19917;-68
2022/12/24 07:00:43;;;;;;;;;;;31.70;64.20;;;;;;5043290;28;19988;-68
2022/12/24 07:03:11;;;;;;;;;;;31.60;64.90;;;;;;5039840;28;19916;-68
2022/12/24 07:05:37;;;;;;;;;;;31.60;65.20;;;;;;5046671;28;19952;-68
2022/12/24 07:08:04;;;;;;;;;;;31.50;64.50;;;;;;5037958;28;20008;-68
2022/12/24 07:10:31;;;;;;;;;;;31.50;64.60;;;;;;5044039;28;19913;-67
2022/12/24 07:12:57;;;;;;;;;;;31.50;63.80;;;;;;5041363;28;19930;-67
2022/12/24 07:15:24;;;;;;;;;;;31.60;63.60;;;;;;5035035;28;19988;-69
2022/12/24 07:17:50;;;;;;;;;;;31.50;63.60;;;;;;5041625;28;19921;-69
2022/12/24 07:20:17;;;;;;;;;;;31.50;64.30;;;;;;5039216;28;19913;-68
2022/12/24 07:22:44;;;;;;;;;;;31.40;64.20;;;;;;5049661;28;19912;-67
2022/12/24 07:25:10;;;;;;;;;;;31.30;64.70;;;;;;5041287;28;19916;-68
2022/12/24 07:27:37;;;;;;;;;;;31.40;65.60;;;;;;5040846;28;20030;-69
2022/12/24 07:30:06;;;;;;;;;;;31.50;65.50;;;;;;5039245;28;19955;-69
2022/12/24 07:32:33;;;;;;;;;;;31.20;66.20;;;;;;5043154;28;19924;-68
2022/12/24 07:34:59;;;;;;;;;;;31.00;67.10;;;;;;5041585;28;19920;-68
2022/12/24 07:37:26;;;;;;;;;;;30.80;67.90;;;;;;5039821;28;19963;-68
2022/12/24 07:39:53;;;;;;;;;;;30.90;67.80;;;;;;5048199;28;20633;-68
2022/12/24 07:42:19;;;;;;;;;;;30.80;68.80;;;;;;5039370;28;19938;-69
2022/12/24 07:44:47;;;;;;;;;;;30.60;69.20;;;;;;5043116;28;20000;-67
2022/12/24 07:47:13;;;;;;;;;;;30.30;69.20;;;;;;5038090;28;20652;-68
2022/12/24 07:49:40;;;;;;;;;;;30.10;70.60;;;;;;5042723;28;19915;-67
2022/12/24 07:52:07;;;;;;;;;;;29.80;74.70;;;;;;5041785;28;19913;-68
2022/12/24 07:54:33;;;;;;;;;;;29.50;76.70;;;;;;5040026;28;19917;-65
2022/12/24 07:57:00;;;;;;;;;;;29.40;78.10;;;;;;5041432;28;20002;-67
2022/12/24 07:59:27;;;;;;;;;;;29.30;79.00;;;;;;5039089;28;20056;-66
2022/12/24 08:01:53;;;;;;;;;;;29.20;79.70;;;;;;5042776;28;19916;-67
2022/12/24 08:04:20;;;;;;;;;;;29.10;80.60;;;;;;5038132;28;20000;-67
2022/12/24 08:06:46;;;;;;;;;;;29.00;80.70;;;;;;5041999;28;19921;-68
2022/12/24 08:09:14;;;;;;;;;;;29.00;81.10;;;;;;5040141;28;20205;-69
2022/12/24 08:11:40;;;;;;;;;;;29.10;81.40;;;;;;5039536;28;20361;-68
2022/12/24 08:14:07;;;;;;;;;;;29.10;81.10;;;;;;5041479;28;19928;-67
2022/12/24 08:16:34;;;;;;;;;;;29.00;81.50;;;;;;5037951;28;20000;-69
2022/12/24 08:19:00;;;;;;;;;;;28.70;82.50;;;;;;5047699;28;19932;-69
2022/12/24 08:21:27;;;;;;;;;;;28.70;82.60;;;;;;5047924;28;19985;-68
2022/12/24 08:23:54;;;;;;;;;;;28.60;82.40;;;;;;5048020;28;19956;-67
2022/12/24 08:26:20;;;;;;;;;;;28.60;82.70;;;;;;5047929;28;19935;-68
2022/12/24 08:28:47;;;;;;;;;;;28.40;83.50;;;;;;5039851;28;19913;-66
2022/12/24 08:31:14;;;;;;;;;;;28.40;84.40;;;;;;5037378;28;20349;-68
2022/12/24 08:33:41;;;;;;;;;;;28.30;85.20;;;;;;5041616;28;19999;-68
2022/12/24 08:36:08;;;;;;;;;;;28.10;86.20;;;;;;5038876;28;20702;-66
2022/12/24 08:38:34;;;;;;;;;;;28.00;87.20;;;;;;5036080;28;19967;-67
2022/12/24 08:41:04;;;;;;;;;;;27.70;87.80;;;;;;5035286;28;20138;-68
2022/12/24 08:43:31;;;;;;;;;;;27.60;88.30;;;;;;5042011;28;20365;-66
2022/12/24 08:46:01;;;;;;;;;;;27.50;89.10;;;;;;5038707;28;19916;-66
2022/12/24 08:48:28;;;;;;;;;;;27.30;90.00;;;;;;5037545;28;20402;-65
2022/12/24 08:50:55;;;;;;;;;;;27.30;90.00;;;;;;5042863;28;19921;-67
2022/12/24 08:53:21;;;;;;;;;;;27.10;90.10;;;;;;5042766;28;19912;-67
2022/12/24 08:55:48;;;;;;;;;;;27.10;90.50;;;;;;5041057;28;20332;-67
2022/12/24 08:58:14;;;;;;;;;;;27.00;90.70;;;;;;5036917;28;19924;-69
2022/12/24 09:00:41;;;;;;;;;;;26.90;90.50;;;;;;5039486;28;19909;-68
2022/12/24 09:03:11;;;;;;;;;;;26.80;90.60;;;;;;5039788;28;19916;-66
2022/12/24 09:05:39;;;;;;;;;;;26.80;90.60;;;;;;5040765;28;20344;-66
2022/12/24 09:08:05;;;;;;;;;;;26.70;90.90;;;;;;5041143;28;19956;-68
2022/12/24 09:10:32;;;;;;;;;;;26.70;91.40;;;;;;5042337;28;20427;-66
2022/12/24 09:12:59;;;;;;;;;;;26.60;91.60;;;;;;5042161;28;19970;-67
2022/12/24 09:15:25;;;;;;;;;;;26.60;92.00;;;;;;5052111;28;20278;-68
2022/12/24 09:17:52;;;;;;;;;;;26.60;91.70;;;;;;5051091;28;19956;-67
2022/12/24 09:20:19;;;;;;;;;;;26.60;91.40;;;;;;5050478;28;19963;-67
2022/12/24 09:22:45;;;;;;;;;;;26.60;91.20;;;;;;5053467;28;19909;-67
2022/12/24 09:25:12;;;;;;;;;;;26.50;91.50;;;;;;5045865;28;19917;-68
2022/12/24 09:27:38;;;;;;;;;;;26.50;91.50;;;;;;5048052;28;19977;-67
2022/12/24 09:30:06;;;;;;;;;;;26.50;91.80;;;;;;5048333;28;20230;-67
2022/12/24 09:32:33;;;;;;;;;;;26.40;91.60;;;;;;5037303;28;19921;-68
2022/12/24 09:34:59;;;;;;;;;;;26.30;91.80;;;;;;5041174;28;19913;-67
2022/12/24 09:37:26;;;;;;;;;;;26.20;92.10;;;;;;5040665;28;19916;-68
2022/12/24 09:39:52;;;;;;;;;;;26.20;92.40;;;;;;5040151;28;19916;-68
2022/12/24 09:42:28;;;;;;;;;;;26.20;92.60;;;;;;5040338;28;19913;-67
2022/12/24 09:45:00;;;;;;;;;;;26.10;92.90;;;;;;5039291;28;19967;-65
2022/12/24 09:47:30;;;;;;;;;;;26.10;93.00;;;;;;5041592;28;19916;-68
2022/12/24 09:49:59;;;;;;;;;;;26.00;93.20;;;;;;5042380;28;19913;-68
2022/12/24 09:52:36;;;;;;;;;;;26.00;93.60;;;;;;5042174;28;19909;-67
2022/12/24 09:55:12;;;;;;;;;;;25.80;93.70;;;;;;5037973;28;19967;-67
2022/12/24 09:57:39;;;;;;;;;;;25.60;94.20;;;;;;5037157;28;19967;-66
2022/12/24 10:00:26;;;;;;;;;;;25.50;94.60;;;;;;5036342;28;19971;-67
2022/12/24 10:02:53;;;;;;;;;;;25.50;94.80;;;;;;5039556;28;19932;-68
2022/12/24 10:05:34;;;;;;;;;;;25.50;94.80;;;;;;5049610;28;19989;-68
2022/12/24 10:08:18;;;;;;;;;;;25.50;94.90;;;;;;5045206;28;20006;-69
2022/12/24 10:10:45;;;;;;;;;;;25.50;95.00;;;;;;5045670;28;20357;-67
2022/12/24 10:13:17;;;;;;;;;;;25.60;95.00;;;;;;5048503;28;19908;-68
2022/12/24 10:15:51;;;;;;;;;;;25.60;95.00;;;;;;5044361;28;19919;-67
2022/12/24 10:18:53;;;;;;;;;;;25.60;95.00;;;;;;5043314;28;19916;-67
2022/12/24 10:21:38;;;;;;;;;;;25.60;95.20;;;;;;5030524;28;20032;-68
2022/12/24 10:24:25;;;;;;;;;;;25.60;95.20;;;;;;5034324;28;19909;-67
2022/12/24 10:26:54;;;;;;;;;;;25.60;95.40;;;;;;5049077;28;19957;-67
2022/12/24 10:29:24;;;;;;;;;;;25.60;95.40;;;;;;5046150;28;20373;-68
2022/12/24 10:31:58;;;;;;;;;;;25.60;95.60;;;;;;5032820;28;20692;-69
2022/12/24 10:34:27;;;;;;;;;;;25.50;95.80;;;;;;5035715;28;19921;-67
2022/12/24 10:36:54;;;;;;;;;;;25.50;95.80;;;;;;5051073;28;19977;-69
2022/12/24 10:39:22;;;;;;;;;;;25.40;96.00;;;;;;5056520;28;19916;-67
2022/12/24 10:41:50;;;;;;;;;;;25.40;96.00;;;;;;5040297;28;19913;-67
2022/12/24 10:44:18;;;;;;;;;;;25.40;96.20;;;;;;5035128;28;19952;-68
2022/12/24 10:46:46;;;;;;;;;;;25.40;96.30;;;;;;5047501;28;19916;-68
2022/12/24 10:49:14;;;;;;;;;;;25.40;96.40;;;;;;5052878;28;20681;-69
2022/12/24 10:51:53;;;;;;;;;;;25.40;96.50;;;;;;5042217;28;19958;-68
2022/12/24 10:54:21;;;;;;;;;;;25.40;96.50;;;;;;5049599;28;20218;-68
2022/12/24 10:56:51;;;;;;;;;;;25.40;96.50;;;;;;5042410;28;20538;-66
2022/12/24 10:59:25;;;;;;;;;;;25.30;96.50;;;;;;5043905;28;19928;-69
2022/12/24 11:01:52;;;;;;;;;;;25.30;96.40;;;;;;5048772;28;20258;-70
2022/12/24 11:04:20;;;;;;;;;;;25.30;96.50;;;;;;5056123;28;19916;-68
2022/12/24 11:06:55;;;;;;;;;;;25.30;96.50;;;;;;5042106;28;19920;-69
2022/12/24 11:09:24;;;;;;;;;;;25.30;96.40;;;;;;5037250;28;19917;-69
2022/12/24 11:11:51;;;;;;;;;;;25.30;96.30;;;;;;5035114;28;19918;-69
2022/12/24 11:14:19;;;;;;;;;;;25.30;96.40;;;;;;5035501;28;19909;-69
2022/12/24 11:16:51;;;;;;;;;;;25.30;96.40;;;;;;5047083;28;19978;-70
2022/12/24 11:19:19;;;;;;;;;;;25.30;96.40;;;;;;5047726;28;20395;-68
2022/12/24 11:21:46;;;;;;;;;;;25.30;96.60;;;;;;5038535;28;19912;-68
2022/12/24 11:24:12;;;;;;;;;;;25.40;96.70;;;;;;5054311;28;19916;-70
2022/12/24 11:26:40;;;;;;;;;;;25.40;96.90;;;;;;5054078;28;19913;-69
2022/12/24 11:29:20;;;;;;;;;;;25.40;97.00;;;;;;5033724;28;20004;-69
2022/12/24 11:31:48;;;;;;;;;;;25.40;97.20;;;;;;5034279;28;19908;-68
2022/12/24 11:34:28;;;;;;;;;;;25.40;97.50;;;;;;5041411;28;20015;-69
2022/12/24 11:37:09;;;;;;;;;;;25.30;97.70;;;;;;5052487;28;19988;-70
2022/12/24 11:39:47;;;;;;;;;;;25.30;98.00;;;;;;5036309;28;20387;-69
2022/12/24 11:42:22;;;;;;;;;;;25.30;98.40;;;;;;5036445;28;19920;-67
2022/12/24 11:44:49;;;;;;;;;;;25.20;98.80;;;;;;5054134;28;19920;-69
2022/12/24 11:47:16;;;;;;;;;;;25.20;99.80;;;;;;5049374;28;19920;-69
2022/12/24 11:49:45;;;;;;;;;;;25.20;99.90;;;;;;5035863;28;19909;-69
2022/12/24 11:52:12;;;;;;;;;;;25.10;99.90;;;;;;5039280;28;20629;-69
2022/12/24 11:54:51;;;;;;;;;;;25.00;99.90;;;;;;5052760;28;19916;-69
2022/12/24 11:57:20;;;;;;;;;;;24.90;99.90;;;;;;5054514;28;19920;-71
2022/12/24 11:59:48;;;;;;;;;;;24.80;99.90;;;;;;5050048;28;19913;-70
2022/12/24 12:02:33;;;;;;;;;;;24.60;99.90;;;;;;5034651;28;19963;-70
2022/12/24 12:05:07;;;;;;;;;;;24.50;99.90;;;;;;5036289;28;19935;-69
2022/12/24 12:07:35;;;;;;;;;;;24.30;99.90;;;;;;5052870;28;19981;-70
2022/12/24 12:10:19;;;;;;;;;;;24.20;99.90;;;;;;5057927;28;19909;-69
2022/12/24 12:13:06;;;;;;;;;;;24.20;99.90;;;;;;5057211;28;19909;-68
2022/12/24 12:15:52;;;;;;;;;;;24.10;99.90;;;;;;5055887;28;19912;-70
2022/12/24 12:18:24;;;;;;;;;;;24.00;99.90;;;;;;5049950;28;20404;-69
2022/12/24 12:20:56;;;;;;;;;;;23.90;99.90;;;;;;5057144;28;19962;-69
2022/12/24 12:23:28;;;;;;;;;;;23.90;99.90;;;;;;5053421;28;19937;-69
2022/12/24 12:25:55;;;;;;;;;;;23.80;99.90;;;;;;5055711;28;20477;-68
2022/12/24 12:28:42;;;;;;;;;;;23.80;99.90;;;;;;5040629;28;19919;-67
2022/12/24 12:31:08;;;;;;;;;;;23.80;99.90;;;;;;5033040;28;19908;-69
2022/12/24 12:33:38;;;;;;;;;;;23.70;99.90;;;;;;5036932;28;19928;-69
2022/12/24 12:36:06;;;;;;;;;;;23.70;99.90;;;;;;5036944;28;20002;-68
2022/12/24 12:38:33;;;;;;;;;;;23.70;99.90;;;;;;5033449;28;19917;-68
2022/12/24 12:41:18;;;;;;;;;;;23.70;99.90;;;;;;5042144;28;20285;-69
2022/12/24 12:44:03;;;;;;;;;;;23.70;99.90;;;;;;5051208;28;19920;-67
2022/12/24 12:46:47;;;;;;;;;;;23.60;99.90;;;;;;5032859;28;20375;-70
2022/12/24 12:49:32;;;;;;;;;;;23.60;99.90;;;;;;5033774;28;19912;-69
2022/12/24 12:52:07;;;;;;;;;;;23.60;99.90;;;;;;5036227;28;19944;-69
2022/12/24 12:55:03;;;;;;;;;;;23.50;99.90;;;;;;5052801;28;20095;-69
2022/12/24 12:57:32;;;;;;;;;;;23.50;99.90;;;;;;5052915;28;19935;-69
2022/12/24 13:00:11;;;;;;;;;;;23.50;99.90;;;;;;5056389;28;19931;-70
2022/12/24 13:02:53;;;;;;;;;;;23.40;99.90;;;;;;5054566;28;19904;-69
2022/12/24 13:05:20;;;;;;;;;;;23.30;99.90;;;;;;5036931;28;19923;-69
2022/12/24 13:08:01;;;;;;;;;;;23.30;99.90;;;;;;5037249;28;19975;-70
2022/12/24 13:10:48;;;;;;;;;;;23.30;99.90;;;;;;5033542;28;20004;-68
2022/12/24 13:13:19;;;;;;;;;;;23.20;99.90;;;;;;5032453;28;19933;-67
2022/12/24 13:15:56;;;;;;;;;;;23.10;99.90;;;;;;5035787;28;19909;-68
2022/12/24 13:18:45;;;;;;;;;;;23.10;99.90;;;;;;5032516;28;19978;-67
2022/12/24 13:21:22;;;;;;;;;;;23.00;99.90;;;;;;5034049;28;19920;-68
2022/12/24 13:23:49;;;;;;;;;;;22.90;99.90;;;;;;5035109;28;20339;-69
2022/12/24 13:26:17;;;;;;;;;;;22.90;99.90;;;;;;5033871;28;19912;-69
2022/12/24 13:28:44;;;;;;;;;;;22.90;99.90;;;;;;5034636;28;19939;-69
2022/12/24 13:31:18;;;;;;;;;;;22.80;99.90;;;;;;5035652;28;19962;-68
2022/12/24 13:33:46;;;;;;;;;;;22.80;99.90;;;;;;5052711;28;19921;-68
2022/12/24 13:36:17;;;;;;;;;;;22.90;99.90;;;;;;5054576;28;20404;-69
2022/12/24 13:38:48;;;;;;;;;;;22.90;99.90;;;;;;5054257;28;20037;-69
2022/12/24 13:41:33;;;;;;;;;;;22.80;99.90;;;;;;5062284;28;19922;-69
2022/12/24 13:44:06;;;;;;;;;;;22.90;99.90;;;;;;5058722;28;19916;-69
2022/12/24 13:46:51;;;;;;;;;;;22.80;99.90;;;;;;5050376;28;20289;-69
2022/12/24 13:49:19;;;;;;;;;;;22.80;99.90;;;;;;5041338;28;19909;-69
2022/12/24 13:51:46;;;;;;;;;;;22.80;99.90;;;;;;5055993;28;19912;-70
2022/12/24 13:54:14;;;;;;;;;;;22.70;99.90;;;;;;5061771;28;19908;-69
2022/12/24 13:56:41;;;;;;;;;;;22.60;99.90;;;;;;5058373;28;19915;-69
2022/12/24 13:59:11;;;;;;;;;;;22.60;99.90;;;;;;5062375;28;19956;-69
2022/12/24 14:01:40;;;;;;;;;;;22.60;99.90;;;;;;5039388;28;19963;-70
2022/12/24 14:04:08;;;;;;;;;;;22.50;99.90;;;;;;5040603;28;19913;-70
2022/12/24 14:06:37;;;;;;;;;;;22.50;99.90;;;;;;5039171;28;19909;-69
2022/12/24 14:09:09;;;;;;;;;;;22.50;99.90;;;;;;5040897;28;19964;-69
2022/12/24 14:11:57;;;;;;;;;;;22.40;99.90;;;;;;5043153;28;19916;-69
2022/12/24 14:14:28;;;;;;;;;;;22.40;99.90;;;;;;5060944;28;19908;-68
2022/12/24 14:16:56;;;;;;;;;;;22.30;99.90;;;;;;5062535;28;19909;-69
2022/12/24 14:19:24;;;;;;;;;;;22.30;99.90;;;;;;5062015;28;19915;-70
2022/12/24 14:22:09;;;;;;;;;;;22.20;99.90;;;;;;5060534;28;19908;-68
2022/12/24 14:24:42;;;;;;;;;;;22.10;99.90;;;;;;5058629;28;19951;-69
2022/12/24 14:27:19;;;;;;;;;;;22.20;99.90;;;;;;5041123;28;20008;-68
2022/12/24 14:30:01;;;;;;;;;;;22.20;99.90;;;;;;5053975;28;19935;-68
2022/12/24 14:32:38;;;;;;;;;;;22.20;99.90;;;;;;5060796;28;19935;-70
2022/12/24 14:35:14;;;;;;;;;;;22.20;99.90;;;;;;5061864;28;20003;-69
2022/12/24 14:37:48;;;;;;;;;;;22.10;99.90;;;;;;5058609;28;20377;-70
2022/12/24 14:40:25;;;;;;;;;;;22.10;99.90;;;;;;5048348;28;19913;-69